sensor_id;sensor_type;location;lat;lon;timestamp;P1;durP1;ratioP1;P2;durP2;ratioP2
77520;SDS011;66633;47.628;19.158;2023-03-05T00:01:26;11.52;;;5.82;;
77520;SDS011;66633;47.628;19.158;2023-03-05T00:03:52;10.55;;;5.63;;
77520;SDS011;66633;47.628;19.158;2023-03-05T00:06:22;12.18;;;5.68;;
77520;SDS011;66633;47.628;19.158;2023-03-05T00:08:48;10.82;;;5.32;;
77520;SDS011;66633;47.628;19.158;2023-03-05T00:11:13;13.13;;;5.80;;
77520;SDS011;66633;47.628;19.158;2023-03-05T00:13:39;14.25;;;6.65;;
77520;SDS011;66633;47.628;19.158;2023-03-05T00:16:05;13.02;;;6.50;;
77520;SDS011;66633;47.628;19.158;2023-03-05T00:18:30;13.60;;;6.07;;
77520;SDS011;66633;47.628;19.158;2023-03-05T00:20:56;12.15;;;6.57;;
77520;SDS011;66633;47.628;19.158;2023-03-05T00:23:21;13.68;;;6.32;;
77520;SDS011;66633;47.628;19.158;2023-03-05T00:25:46;13.03;;;6.43;;
77520;SDS011;66633;47.628;19.158;2023-03-05T00:28:12;13.98;;;6.57;;
77520;SDS011;66633;47.628;19.158;2023-03-05T00:30:37;15.70;;;6.60;;
77520;SDS011;66633;47.628;19.158;2023-03-05T00:33:03;13.07;;;6.47;;
77520;SDS011;66633;47.628;19.158;2023-03-05T00:35:28;15.25;;;7.47;;
77520;SDS011;66633;47.628;19.158;2023-03-05T00:37:53;14.77;;;6.95;;
77520;SDS011;66633;47.628;19.158;2023-03-05T00:40:19;17.13;;;8.57;;
77520;SDS011;66633;47.628;19.158;2023-03-05T00:42:44;16.02;;;7.68;;
77520;SDS011;66633;47.628;19.158;2023-03-05T00:45:10;15.90;;;7.57;;
77520;SDS011;66633;47.628;19.158;2023-03-05T00:47:35;16.75;;;8.73;;
77520;SDS011;66633;47.628;19.158;2023-03-05T00:50:01;17.95;;;8.48;;
77520;SDS011;66633;47.628;19.158;2023-03-05T00:52:26;16.85;;;7.60;;
77520;SDS011;66633;47.628;19.158;2023-03-05T00:54:52;14.80;;;7.65;;
77520;SDS011;66633;47.628;19.158;2023-03-05T00:57:17;17.52;;;7.78;;
77520;SDS011;66633;47.628;19.158;2023-03-05T00:59:42;17.87;;;8.60;;
77520;SDS011;66633;47.628;19.158;2023-03-05T01:02:07;15.43;;;8.20;;
77520;SDS011;66633;47.628;19.158;2023-03-05T01:04:33;16.00;;;7.97;;
77520;SDS011;66633;47.628;19.158;2023-03-05T01:06:58;16.52;;;7.95;;
77520;SDS011;66633;47.628;19.158;2023-03-05T01:09:23;16.13;;;7.73;;
77520;SDS011;66633;47.628;19.158;2023-03-05T01:11:50;15.05;;;7.88;;
77520;SDS011;66633;47.628;19.158;2023-03-05T01:14:15;16.73;;;8.30;;
77520;SDS011;66633;47.628;19.158;2023-03-05T01:16:40;20.67;;;8.57;;
77520;SDS011;66633;47.628;19.158;2023-03-05T01:19:06;17.52;;;7.72;;
77520;SDS011;66633;47.628;19.158;2023-03-05T01:21:31;15.27;;;7.10;;
77520;SDS011;66633;47.628;19.158;2023-03-05T01:23:56;15.93;;;7.35;;
77520;SDS011;66633;47.628;19.158;2023-03-05T01:26:22;18.75;;;7.95;;
77520;SDS011;66633;47.628;19.158;2023-03-05T01:28:48;16.27;;;7.90;;
77520;SDS011;66633;47.628;19.158;2023-03-05T01:31:13;16.83;;;8.10;;
77520;SDS011;66633;47.628;19.158;2023-03-05T01:33:38;16.95;;;8.02;;
77520;SDS011;66633;47.628;19.158;2023-03-05T01:36:10;16.17;;;6.60;;
77520;SDS011;66633;47.628;19.158;2023-03-05T01:38:39;14.27;;;6.68;;
77520;SDS011;66633;47.628;19.158;2023-03-05T01:41:04;13.93;;;6.97;;
77520;SDS011;66633;47.628;19.158;2023-03-05T01:43:29;16.92;;;7.80;;
77520;SDS011;66633;47.628;19.158;2023-03-05T01:48:41;16.33;;;7.45;;
77520;SDS011;66633;47.628;19.158;2023-03-05T01:51:07;15.35;;;7.82;;
77520;SDS011;66633;47.628;19.158;2023-03-05T01:53:32;13.60;;;6.97;;
77520;SDS011;66633;47.628;19.158;2023-03-05T01:55:58;15.73;;;7.65;;
77520;SDS011;66633;47.628;19.158;2023-03-05T01:58:23;16.17;;;7.47;;
77520;SDS011;66633;47.628;19.158;2023-03-05T02:00:49;12.75;;;6.55;;
77520;SDS011;66633;47.628;19.158;2023-03-05T02:03:16;15.88;;;7.05;;
77520;SDS011;66633;47.628;19.158;2023-03-05T02:05:42;18.73;;;8.40;;
77520;SDS011;66633;47.628;19.158;2023-03-05T02:08:10;18.88;;;8.30;;
77520;SDS011;66633;47.628;19.158;2023-03-05T02:10:37;16.00;;;7.35;;
77520;SDS011;66633;47.628;19.158;2023-03-05T02:13:04;20.60;;;7.97;;
77520;SDS011;66633;47.628;19.158;2023-03-05T02:15:30;18.58;;;7.68;;
77520;SDS011;66633;47.628;19.158;2023-03-05T02:17:56;16.80;;;8.20;;
77520;SDS011;66633;47.628;19.158;2023-03-05T02:20:23;20.80;;;8.93;;
77520;SDS011;66633;47.628;19.158;2023-03-05T02:22:48;21.02;;;8.68;;
77520;SDS011;66633;47.628;19.158;2023-03-05T02:30:29;16.65;;;7.97;;
77520;SDS011;66633;47.628;19.158;2023-03-05T02:32:55;22.00;;;9.20;;
77520;SDS011;66633;47.628;19.158;2023-03-05T02:35:20;19.33;;;8.77;;
77520;SDS011;66633;47.628;19.158;2023-03-05T02:37:46;18.87;;;7.80;;
77520;SDS011;66633;47.628;19.158;2023-03-05T02:40:11;16.40;;;7.82;;
77520;SDS011;66633;47.628;19.158;2023-03-05T02:42:37;13.73;;;6.75;;
77520;SDS011;66633;47.628;19.158;2023-03-05T02:45:03;16.10;;;6.78;;
77520;SDS011;66633;47.628;19.158;2023-03-05T02:47:28;15.55;;;7.93;;
77520;SDS011;66633;47.628;19.158;2023-03-05T02:49:54;17.47;;;7.50;;
77520;SDS011;66633;47.628;19.158;2023-03-05T02:52:19;16.83;;;7.40;;
77520;SDS011;66633;47.628;19.158;2023-03-05T02:54:47;14.75;;;7.18;;
77520;SDS011;66633;47.628;19.158;2023-03-05T02:57:12;14.00;;;7.13;;
77520;SDS011;66633;47.628;19.158;2023-03-05T02:59:38;14.27;;;6.93;;
77520;SDS011;66633;47.628;19.158;2023-03-05T03:02:03;15.83;;;8.13;;
77520;SDS011;66633;47.628;19.158;2023-03-05T03:04:28;14.73;;;7.32;;
77520;SDS011;66633;47.628;19.158;2023-03-05T03:06:54;16.48;;;7.35;;
77520;SDS011;66633;47.628;19.158;2023-03-05T03:09:19;17.83;;;7.83;;
77520;SDS011;66633;47.628;19.158;2023-03-05T03:11:45;20.08;;;8.05;;
77520;SDS011;66633;47.628;19.158;2023-03-05T03:14:10;16.63;;;7.30;;
77520;SDS011;66633;47.628;19.158;2023-03-05T03:16:35;15.23;;;6.97;;
77520;SDS011;66633;47.628;19.158;2023-03-05T03:19:01;14.43;;;7.23;;
77520;SDS011;66633;47.628;19.158;2023-03-05T03:21:26;15.13;;;7.55;;
77520;SDS011;66633;47.628;19.158;2023-03-05T03:23:52;17.02;;;7.38;;
77520;SDS011;66633;47.628;19.158;2023-03-05T03:26:17;16.77;;;7.00;;
77520;SDS011;66633;47.628;19.158;2023-03-05T03:28:42;18.67;;;7.38;;
77520;SDS011;66633;47.628;19.158;2023-03-05T03:31:08;13.85;;;6.90;;
77520;SDS011;66633;47.628;19.158;2023-03-05T03:33:33;16.05;;;7.78;;
77520;SDS011;66633;47.628;19.158;2023-03-05T03:35:58;16.38;;;7.15;;
77520;SDS011;66633;47.628;19.158;2023-03-05T03:38:24;16.60;;;7.55;;
77520;SDS011;66633;47.628;19.158;2023-03-05T03:40:49;16.88;;;6.15;;
77520;SDS011;66633;47.628;19.158;2023-03-05T03:43:14;15.20;;;6.70;;
77520;SDS011;66633;47.628;19.158;2023-03-05T03:45:40;17.80;;;6.63;;
77520;SDS011;66633;47.628;19.158;2023-03-05T03:48:06;14.35;;;7.47;;
77520;SDS011;66633;47.628;19.158;2023-03-05T03:50:31;16.15;;;7.00;;
77520;SDS011;66633;47.628;19.158;2023-03-05T03:52:56;18.17;;;7.50;;
77520;SDS011;66633;47.628;19.158;2023-03-05T03:55:22;16.03;;;6.33;;
77520;SDS011;66633;47.628;19.158;2023-03-05T03:57:47;16.30;;;6.93;;
77520;SDS011;66633;47.628;19.158;2023-03-05T04:00:12;16.07;;;6.83;;
77520;SDS011;66633;47.628;19.158;2023-03-05T04:02:38;15.77;;;7.07;;
77520;SDS011;66633;47.628;19.158;2023-03-05T04:05:03;16.35;;;7.38;;
77520;SDS011;66633;47.628;19.158;2023-03-05T04:07:28;13.93;;;6.68;;
77520;SDS011;66633;47.628;19.158;2023-03-05T04:09:54;16.33;;;6.80;;
77520;SDS011;66633;47.628;19.158;2023-03-05T04:12:19;14.30;;;6.53;;
77520;SDS011;66633;47.628;19.158;2023-03-05T04:14:46;15.43;;;6.88;;
77520;SDS011;66633;47.628;19.158;2023-03-05T04:17:11;14.68;;;6.03;;
77520;SDS011;66633;47.628;19.158;2023-03-05T04:19:37;15.35;;;7.07;;
77520;SDS011;66633;47.628;19.158;2023-03-05T04:22:02;15.65;;;6.55;;
77520;SDS011;66633;47.628;19.158;2023-03-05T04:24:27;14.60;;;6.60;;
77520;SDS011;66633;47.628;19.158;2023-03-05T04:26:52;14.50;;;6.30;;
77520;SDS011;66633;47.628;19.158;2023-03-05T04:29:18;16.08;;;6.30;;
77520;SDS011;66633;47.628;19.158;2023-03-05T04:31:43;12.95;;;6.10;;
77520;SDS011;66633;47.628;19.158;2023-03-05T04:34:08;15.53;;;7.23;;
77520;SDS011;66633;47.628;19.158;2023-03-05T04:36:34;15.50;;;6.50;;
77520;SDS011;66633;47.628;19.158;2023-03-05T04:38:59;13.57;;;5.60;;
77520;SDS011;66633;47.628;19.158;2023-03-05T04:41:25;14.10;;;6.57;;
77520;SDS011;66633;47.628;19.158;2023-03-05T04:43:50;13.88;;;6.38;;
77520;SDS011;66633;47.628;19.158;2023-03-05T04:46:15;14.80;;;7.13;;
77520;SDS011;66633;47.628;19.158;2023-03-05T04:48:41;15.73;;;6.17;;
77520;SDS011;66633;47.628;19.158;2023-03-05T04:51:06;14.13;;;6.10;;
77520;SDS011;66633;47.628;19.158;2023-03-05T04:53:31;12.90;;;6.13;;
77520;SDS011;66633;47.628;19.158;2023-03-05T04:55:56;12.57;;;6.00;;
77520;SDS011;66633;47.628;19.158;2023-03-05T04:58:25;16.10;;;7.32;;
77520;SDS011;66633;47.628;19.158;2023-03-05T05:00:50;15.68;;;6.70;;
77520;SDS011;66633;47.628;19.158;2023-03-05T05:03:15;16.43;;;6.30;;
77520;SDS011;66633;47.628;19.158;2023-03-05T05:05:41;15.43;;;6.73;;
77520;SDS011;66633;47.628;19.158;2023-03-05T05:08:06;16.70;;;6.78;;
77520;SDS011;66633;47.628;19.158;2023-03-05T05:10:32;15.40;;;6.75;;
77520;SDS011;66633;47.628;19.158;2023-03-05T05:12:58;16.92;;;6.50;;
77520;SDS011;66633;47.628;19.158;2023-03-05T05:15:23;15.77;;;5.88;;
77520;SDS011;66633;47.628;19.158;2023-03-05T05:17:48;17.00;;;6.45;;
77520;SDS011;66633;47.628;19.158;2023-03-05T05:20:14;15.60;;;6.10;;
77520;SDS011;66633;47.628;19.158;2023-03-05T05:22:40;15.40;;;7.40;;
77520;SDS011;66633;47.628;19.158;2023-03-05T05:25:05;14.35;;;6.63;;
77520;SDS011;66633;47.628;19.158;2023-03-05T05:27:30;14.65;;;6.22;;
77520;SDS011;66633;47.628;19.158;2023-03-05T05:29:56;16.38;;;7.32;;
77520;SDS011;66633;47.628;19.158;2023-03-05T05:32:22;15.53;;;6.87;;
77520;SDS011;66633;47.628;19.158;2023-03-05T05:34:48;14.20;;;7.25;;
77520;SDS011;66633;47.628;19.158;2023-03-05T05:37:13;15.15;;;6.85;;
77520;SDS011;66633;47.628;19.158;2023-03-05T05:39:39;14.68;;;6.85;;
77520;SDS011;66633;47.628;19.158;2023-03-05T05:42:04;15.75;;;6.22;;
77520;SDS011;66633;47.628;19.158;2023-03-05T05:44:30;14.80;;;6.28;;
77520;SDS011;66633;47.628;19.158;2023-03-05T05:46:55;14.30;;;6.80;;
77520;SDS011;66633;47.628;19.158;2023-03-05T05:49:20;15.23;;;6.25;;
77520;SDS011;66633;47.628;19.158;2023-03-05T05:51:45;12.33;;;5.70;;
77520;SDS011;66633;47.628;19.158;2023-03-05T05:54:11;18.10;;;5.83;;
77520;SDS011;66633;47.628;19.158;2023-03-05T05:56:37;14.07;;;6.40;;
77520;SDS011;66633;47.628;19.158;2023-03-05T05:59:02;15.90;;;6.82;;
77520;SDS011;66633;47.628;19.158;2023-03-05T06:01:28;14.07;;;6.47;;
77520;SDS011;66633;47.628;19.158;2023-03-05T06:03:54;13.75;;;6.05;;
77520;SDS011;66633;47.628;19.158;2023-03-05T06:06:21;11.75;;;5.95;;
77520;SDS011;66633;47.628;19.158;2023-03-05T06:08:47;14.88;;;6.95;;
77520;SDS011;66633;47.628;19.158;2023-03-05T06:11:13;16.50;;;7.15;;
77520;SDS011;66633;47.628;19.158;2023-03-05T06:13:40;13.85;;;6.43;;
77520;SDS011;66633;47.628;19.158;2023-03-05T06:16:06;14.43;;;6.53;;
77520;SDS011;66633;47.628;19.158;2023-03-05T06:18:33;14.45;;;6.65;;
77520;SDS011;66633;47.628;19.158;2023-03-05T06:21:00;13.40;;;5.90;;
77520;SDS011;66633;47.628;19.158;2023-03-05T06:23:26;13.15;;;6.57;;
77520;SDS011;66633;47.628;19.158;2023-03-05T06:25:51;15.90;;;6.88;;
77520;SDS011;66633;47.628;19.158;2023-03-05T06:28:16;17.02;;;6.95;;
77520;SDS011;66633;47.628;19.158;2023-03-05T06:30:42;16.70;;;6.80;;
77520;SDS011;66633;47.628;19.158;2023-03-05T06:33:16;13.65;;;7.03;;
77520;SDS011;66633;47.628;19.158;2023-03-05T06:35:58;17.42;;;7.85;;
77520;SDS011;66633;47.628;19.158;2023-03-05T06:38:23;14.18;;;7.32;;
77520;SDS011;66633;47.628;19.158;2023-03-05T06:40:49;14.88;;;6.75;;
77520;SDS011;66633;47.628;19.158;2023-03-05T06:43:16;21.05;;;7.65;;
77520;SDS011;66633;47.628;19.158;2023-03-05T06:45:42;19.63;;;8.32;;
77520;SDS011;66633;47.628;19.158;2023-03-05T06:48:07;16.40;;;8.23;;
77520;SDS011;66633;47.628;19.158;2023-03-05T06:50:35;15.53;;;6.87;;
77520;SDS011;66633;47.628;19.158;2023-03-05T06:53:01;15.05;;;7.20;;
77520;SDS011;66633;47.628;19.158;2023-03-05T06:55:26;17.38;;;8.35;;
77520;SDS011;66633;47.628;19.158;2023-03-05T06:57:51;20.53;;;8.90;;
77520;SDS011;66633;47.628;19.158;2023-03-05T07:00:16;17.63;;;7.23;;
77520;SDS011;66633;47.628;19.158;2023-03-05T07:02:42;18.48;;;8.02;;
77520;SDS011;66633;47.628;19.158;2023-03-05T07:05:08;15.50;;;7.68;;
77520;SDS011;66633;47.628;19.158;2023-03-05T07:07:34;17.17;;;8.05;;
77520;SDS011;66633;47.628;19.158;2023-03-05T07:10:00;16.58;;;7.90;;
77520;SDS011;66633;47.628;19.158;2023-03-05T07:12:25;16.17;;;8.32;;
77520;SDS011;66633;47.628;19.158;2023-03-05T07:14:51;20.85;;;9.70;;
77520;SDS011;66633;47.628;19.158;2023-03-05T07:17:16;20.07;;;8.90;;
77520;SDS011;66633;47.628;19.158;2023-03-05T07:19:41;16.92;;;7.93;;
77520;SDS011;66633;47.628;19.158;2023-03-05T07:22:08;19.45;;;9.40;;
77520;SDS011;66633;47.628;19.158;2023-03-05T07:24:33;14.60;;;7.43;;
77520;SDS011;66633;47.628;19.158;2023-03-05T07:26:58;18.90;;;8.27;;
77520;SDS011;66633;47.628;19.158;2023-03-05T07:29:24;21.33;;;9.15;;
77520;SDS011;66633;47.628;19.158;2023-03-05T07:31:50;17.42;;;8.68;;
77520;SDS011;66633;47.628;19.158;2023-03-05T07:34:15;17.25;;;9.10;;
77520;SDS011;66633;47.628;19.158;2023-03-05T07:36:40;16.02;;;7.65;;
77520;SDS011;66633;47.628;19.158;2023-03-05T07:39:07;18.65;;;9.10;;
77520;SDS011;66633;47.628;19.158;2023-03-05T07:41:32;17.55;;;8.18;;
77520;SDS011;66633;47.628;19.158;2023-03-05T07:43:58;16.10;;;7.15;;
77520;SDS011;66633;47.628;19.158;2023-03-05T07:46:27;26.77;;;9.82;;
77520;SDS011;66633;47.628;19.158;2023-03-05T07:48:53;18.92;;;8.75;;
77520;SDS011;66633;47.628;19.158;2023-03-05T07:51:19;18.85;;;8.27;;
77520;SDS011;66633;47.628;19.158;2023-03-05T07:53:45;16.77;;;8.15;;
77520;SDS011;66633;47.628;19.158;2023-03-05T07:56:11;17.20;;;7.28;;
77520;SDS011;66633;47.628;19.158;2023-03-05T07:58:36;20.37;;;9.57;;
77520;SDS011;66633;47.628;19.158;2023-03-05T08:01:02;17.17;;;8.05;;
77520;SDS011;66633;47.628;19.158;2023-03-05T08:03:28;18.38;;;8.43;;
77520;SDS011;66633;47.628;19.158;2023-03-05T08:05:53;15.77;;;7.40;;
77520;SDS011;66633;47.628;19.158;2023-03-05T08:08:18;19.23;;;8.70;;
77520;SDS011;66633;47.628;19.158;2023-03-05T08:10:44;16.13;;;7.75;;
77520;SDS011;66633;47.628;19.158;2023-03-05T08:13:09;15.73;;;7.13;;
77520;SDS011;66633;47.628;19.158;2023-03-05T08:15:37;19.00;;;8.25;;
77520;SDS011;66633;47.628;19.158;2023-03-05T08:18:03;16.00;;;7.53;;
77520;SDS011;66633;47.628;19.158;2023-03-05T08:20:28;14.18;;;6.85;;
77520;SDS011;66633;47.628;19.158;2023-03-05T08:22:53;17.13;;;7.93;;
77520;SDS011;66633;47.628;19.158;2023-03-05T08:25:19;17.65;;;7.45;;
77520;SDS011;66633;47.628;19.158;2023-03-05T08:27:45;13.98;;;6.90;;
77520;SDS011;66633;47.628;19.158;2023-03-05T08:30:13;18.08;;;6.95;;
77520;SDS011;66633;47.628;19.158;2023-03-05T08:32:38;14.20;;;6.72;;
77520;SDS011;66633;47.628;19.158;2023-03-05T08:35:05;13.73;;;6.53;;
77520;SDS011;66633;47.628;19.158;2023-03-05T08:37:31;16.20;;;7.45;;
77520;SDS011;66633;47.628;19.158;2023-03-05T08:39:58;16.50;;;7.18;;
77520;SDS011;66633;47.628;19.158;2023-03-05T08:42:24;17.73;;;7.15;;
77520;SDS011;66633;47.628;19.158;2023-03-05T08:44:49;13.82;;;7.10;;
77520;SDS011;66633;47.628;19.158;2023-03-05T08:47:14;15.90;;;6.67;;
77520;SDS011;66633;47.628;19.158;2023-03-05T08:49:40;15.13;;;6.60;;
77520;SDS011;66633;47.628;19.158;2023-03-05T08:52:05;13.97;;;6.63;;
77520;SDS011;66633;47.628;19.158;2023-03-05T08:54:31;19.13;;;7.47;;
77520;SDS011;66633;47.628;19.158;2023-03-05T08:56:57;22.52;;;9.75;;
77520;SDS011;66633;47.628;19.158;2023-03-05T08:59:22;17.13;;;7.43;;
77520;SDS011;66633;47.628;19.158;2023-03-05T09:01:47;14.37;;;7.33;;
77520;SDS011;66633;47.628;19.158;2023-03-05T09:04:12;15.27;;;7.53;;
77520;SDS011;66633;47.628;19.158;2023-03-05T09:06:39;13.68;;;5.95;;
77520;SDS011;66633;47.628;19.158;2023-03-05T09:09:05;13.63;;;6.60;;
77520;SDS011;66633;47.628;19.158;2023-03-05T09:11:31;14.43;;;7.10;;
77520;SDS011;66633;47.628;19.158;2023-03-05T09:14:00;12.63;;;6.22;;
77520;SDS011;66633;47.628;19.158;2023-03-05T09:16:25;15.52;;;6.38;;
77520;SDS011;66633;47.628;19.158;2023-03-05T09:18:51;14.07;;;6.43;;
77520;SDS011;66633;47.628;19.158;2023-03-05T09:24:15;12.80;;;6.13;;
77520;SDS011;66633;47.628;19.158;2023-03-05T09:26:40;13.80;;;5.77;;
77520;SDS011;66633;47.628;19.158;2023-03-05T09:29:06;13.90;;;6.13;;
77520;SDS011;66633;47.628;19.158;2023-03-05T09:31:33;13.48;;;6.60;;
77520;SDS011;66633;47.628;19.158;2023-03-05T09:33:58;13.90;;;6.65;;
77520;SDS011;66633;47.628;19.158;2023-03-05T09:36:25;18.52;;;7.85;;
77520;SDS011;66633;47.628;19.158;2023-03-05T09:38:50;15.27;;;6.97;;
77520;SDS011;66633;47.628;19.158;2023-03-05T09:41:25;12.98;;;6.43;;
77520;SDS011;66633;47.628;19.158;2023-03-05T09:48:51;15.63;;;7.55;;
77520;SDS011;66633;47.628;19.158;2023-03-05T09:51:22;13.77;;;7.05;;
77520;SDS011;66633;47.628;19.158;2023-03-05T09:56:21;17.55;;;7.28;;
77520;SDS011;66633;47.628;19.158;2023-03-05T09:58:48;18.17;;;8.57;;
77520;SDS011;66633;47.628;19.158;2023-03-05T10:01:16;15.82;;;7.40;;
77520;SDS011;66633;47.628;19.158;2023-03-05T10:09:03;18.60;;;8.70;;
77520;SDS011;66633;47.628;19.158;2023-03-05T10:14:13;16.70;;;8.13;;
77520;SDS011;66633;47.628;19.158;2023-03-05T10:21:39;18.02;;;8.55;;
77520;SDS011;66633;47.628;19.158;2023-03-05T10:31:45;14.35;;;7.07;;
77520;SDS011;66633;47.628;19.158;2023-03-05T10:44:57;12.07;;;5.53;;
77520;SDS011;66633;47.628;19.158;2023-03-05T10:47:24;10.75;;;5.35;;
77520;SDS011;66633;47.628;19.158;2023-03-05T10:49:53;12.02;;;6.07;;
77520;SDS011;66633;47.628;19.158;2023-03-05T10:52:20;12.23;;;6.15;;
77520;SDS011;66633;47.628;19.158;2023-03-05T10:54:47;14.13;;;6.07;;
77520;SDS011;66633;47.628;19.158;2023-03-05T10:57:14;11.90;;;5.30;;
77520;SDS011;66633;47.628;19.158;2023-03-05T10:59:46;13.57;;;5.72;;
77520;SDS011;66633;47.628;19.158;2023-03-05T11:02:13;12.93;;;5.85;;
77520;SDS011;66633;47.628;19.158;2023-03-05T11:04:38;11.85;;;5.93;;
77520;SDS011;66633;47.628;19.158;2023-03-05T11:07:05;11.90;;;5.22;;
77520;SDS011;66633;47.628;19.158;2023-03-05T11:09:31;12.77;;;5.47;;
77520;SDS011;66633;47.628;19.158;2023-03-05T11:14:32;12.82;;;5.47;;
77520;SDS011;66633;47.628;19.158;2023-03-05T11:16:59;10.45;;;4.68;;
77520;SDS011;66633;47.628;19.158;2023-03-05T11:19:26;12.13;;;5.03;;
77520;SDS011;66633;47.628;19.158;2023-03-05T11:24:31;13.68;;;5.18;;
77520;SDS011;66633;47.628;19.158;2023-03-05T11:26:57;12.63;;;5.38;;
77520;SDS011;66633;47.628;19.158;2023-03-05T11:29:27;10.02;;;4.85;;
77520;SDS011;66633;47.628;19.158;2023-03-05T11:34:21;12.13;;;5.73;;
77520;SDS011;66633;47.628;19.158;2023-03-05T11:39:22;14.35;;;5.72;;
77520;SDS011;66633;47.628;19.158;2023-03-05T11:41:52;16.25;;;7.13;;
77520;SDS011;66633;47.628;19.158;2023-03-05T11:46:47;13.18;;;5.97;;
77520;SDS011;66633;47.628;19.158;2023-03-05T11:49:26;12.93;;;6.72;;
77520;SDS011;66633;47.628;19.158;2023-03-05T11:54:25;16.15;;;7.68;;
77520;SDS011;66633;47.628;19.158;2023-03-05T11:56:53;13.52;;;7.20;;
77520;SDS011;66633;47.628;19.158;2023-03-05T11:59:21;12.98;;;6.47;;
77520;SDS011;66633;47.628;19.158;2023-03-05T12:01:49;14.18;;;7.00;;
77520;SDS011;66633;47.628;19.158;2023-03-05T12:04:15;12.15;;;6.35;;
77520;SDS011;66633;47.628;19.158;2023-03-05T12:06:48;15.30;;;7.40;;
77520;SDS011;66633;47.628;19.158;2023-03-05T12:11:40;15.80;;;7.28;;
77520;SDS011;66633;47.628;19.158;2023-03-05T12:16:53;16.67;;;7.53;;
77520;SDS011;66633;47.628;19.158;2023-03-05T12:21:50;13.35;;;6.85;;
77520;SDS011;66633;47.628;19.158;2023-03-05T12:29:27;15.00;;;7.20;;
77520;SDS011;66633;47.628;19.158;2023-03-05T12:31:54;16.02;;;7.50;;
77520;SDS011;66633;47.628;19.158;2023-03-05T12:37:03;16.48;;;8.10;;
77520;SDS011;66633;47.628;19.158;2023-03-05T12:39:40;13.00;;;7.03;;
77520;SDS011;66633;47.628;19.158;2023-03-05T12:45:36;17.55;;;7.97;;
77520;SDS011;66633;47.628;19.158;2023-03-05T12:47:47;13.25;;;7.38;;
77520;SDS011;66633;47.628;19.158;2023-03-05T12:53:11;13.90;;;7.15;;
77520;SDS011;66633;47.628;19.158;2023-03-05T13:03:21;14.23;;;6.95;;
77520;SDS011;66633;47.628;19.158;2023-03-05T13:05:48;10.23;;;5.20;;
77520;SDS011;66633;47.628;19.158;2023-03-05T13:08:22;12.77;;;5.85;;
77520;SDS011;66633;47.628;19.158;2023-03-05T13:10:51;9.98;;;5.25;;
77520;SDS011;66633;47.628;19.158;2023-03-05T13:13:19;11.82;;;5.80;;
77520;SDS011;66633;47.628;19.158;2023-03-05T13:15:48;12.75;;;5.60;;
77520;SDS011;66633;47.628;19.158;2023-03-05T13:18:18;11.23;;;5.15;;
77520;SDS011;66633;47.628;19.158;2023-03-05T13:20:47;11.07;;;5.20;;
77520;SDS011;66633;47.628;19.158;2023-03-05T13:28:26;10.63;;;5.35;;
77520;SDS011;66633;47.628;19.158;2023-03-05T13:30:56;10.52;;;4.70;;
77520;SDS011;66633;47.628;19.158;2023-03-05T13:33:24;10.63;;;4.82;;
77520;SDS011;66633;47.628;19.158;2023-03-05T13:35:50;10.40;;;5.00;;
77520;SDS011;66633;47.628;19.158;2023-03-05T13:38:30;8.48;;;3.95;;
77520;SDS011;66633;47.628;19.158;2023-03-05T13:41:04;8.45;;;4.35;;
77520;SDS011;66633;47.628;19.158;2023-03-05T13:43:29;10.52;;;4.97;;
77520;SDS011;66633;47.628;19.158;2023-03-05T13:45:56;9.68;;;4.82;;
77520;SDS011;66633;47.628;19.158;2023-03-05T13:48:22;9.52;;;4.80;;
77520;SDS011;66633;47.628;19.158;2023-03-05T13:50:54;10.55;;;4.80;;
77520;SDS011;66633;47.628;19.158;2023-03-05T13:55:50;8.80;;;4.05;;
77520;SDS011;66633;47.628;19.158;2023-03-05T13:59:01;10.23;;;4.40;;
77520;SDS011;66633;47.628;19.158;2023-03-05T14:03:47;12.82;;;4.82;;
77520;SDS011;66633;47.628;19.158;2023-03-05T14:06:14;9.32;;;4.10;;
77520;SDS011;66633;47.628;19.158;2023-03-05T14:08:41;11.77;;;4.63;;
77520;SDS011;66633;47.628;19.158;2023-03-05T14:11:13;7.85;;;3.53;;
77520;SDS011;66633;47.628;19.158;2023-03-05T14:13:39;8.57;;;3.67;;
77520;SDS011;66633;47.628;19.158;2023-03-05T14:18:30;10.27;;;4.43;;
77520;SDS011;66633;47.628;19.158;2023-03-05T14:21:17;10.63;;;4.63;;
77520;SDS011;66633;47.628;19.158;2023-03-05T14:23:45;9.20;;;3.50;;
77520;SDS011;66633;47.628;19.158;2023-03-05T14:26:25;11.48;;;3.88;;
77520;SDS011;66633;47.628;19.158;2023-03-05T14:28:53;10.02;;;3.90;;
77520;SDS011;66633;47.628;19.158;2023-03-05T14:31:20;10.32;;;4.25;;
77520;SDS011;66633;47.628;19.158;2023-03-05T14:33:46;8.43;;;4.00;;
77520;SDS011;66633;47.628;19.158;2023-03-05T14:36:12;9.02;;;3.40;;
77520;SDS011;66633;47.628;19.158;2023-03-05T14:38:39;7.65;;;3.83;;
77520;SDS011;66633;47.628;19.158;2023-03-05T14:41:18;6.82;;;3.03;;
77520;SDS011;66633;47.628;19.158;2023-03-05T14:43:43;9.05;;;3.35;;
77520;SDS011;66633;47.628;19.158;2023-03-05T14:46:11;7.80;;;3.22;;
77520;SDS011;66633;47.628;19.158;2023-03-05T14:48:38;9.88;;;3.58;;
77520;SDS011;66633;47.628;19.158;2023-03-05T14:51:04;7.53;;;3.28;;
77520;SDS011;66633;47.628;19.158;2023-03-05T14:53:33;7.65;;;3.60;;
77520;SDS011;66633;47.628;19.158;2023-03-05T14:56:02;7.40;;;3.22;;
77520;SDS011;66633;47.628;19.158;2023-03-05T14:58:28;7.95;;;3.63;;
77520;SDS011;66633;47.628;19.158;2023-03-05T15:00:56;10.40;;;4.10;;
77520;SDS011;66633;47.628;19.158;2023-03-05T15:03:24;9.43;;;4.57;;
77520;SDS011;66633;47.628;19.158;2023-03-05T15:05:50;11.65;;;4.10;;
77520;SDS011;66633;47.628;19.158;2023-03-05T15:08:17;10.43;;;3.95;;
77520;SDS011;66633;47.628;19.158;2023-03-05T15:10:43;11.25;;;3.83;;
77520;SDS011;66633;47.628;19.158;2023-03-05T15:13:09;11.23;;;5.43;;
77520;SDS011;66633;47.628;19.158;2023-03-05T15:15:36;11.65;;;5.20;;
77520;SDS011;66633;47.628;19.158;2023-03-05T15:18:02;8.02;;;3.85;;
77520;SDS011;66633;47.628;19.158;2023-03-05T15:20:29;8.85;;;4.25;;
77520;SDS011;66633;47.628;19.158;2023-03-05T15:22:55;8.40;;;3.45;;
77520;SDS011;66633;47.628;19.158;2023-03-05T15:25:21;10.43;;;3.63;;
77520;SDS011;66633;47.628;19.158;2023-03-05T15:27:47;11.23;;;4.60;;
77520;SDS011;66633;47.628;19.158;2023-03-05T15:30:22;10.88;;;4.53;;
77520;SDS011;66633;47.628;19.158;2023-03-05T15:32:49;10.27;;;3.78;;
77520;SDS011;66633;47.628;19.158;2023-03-05T15:35:15;7.57;;;3.38;;
77520;SDS011;66633;47.628;19.158;2023-03-05T15:37:40;8.55;;;3.58;;
77520;SDS011;66633;47.628;19.158;2023-03-05T15:40:06;10.05;;;4.47;;
77520;SDS011;66633;47.628;19.158;2023-03-05T15:42:32;9.48;;;3.60;;
77520;SDS011;66633;47.628;19.158;2023-03-05T15:44:57;10.43;;;4.57;;
77520;SDS011;66633;47.628;19.158;2023-03-05T15:47:23;10.77;;;3.95;;
77520;SDS011;66633;47.628;19.158;2023-03-05T15:49:49;12.27;;;4.32;;
77520;SDS011;66633;47.628;19.158;2023-03-05T15:52:14;10.80;;;4.97;;
77520;SDS011;66633;47.628;19.158;2023-03-05T15:54:40;10.68;;;4.07;;
77520;SDS011;66633;47.628;19.158;2023-03-05T15:57:07;10.88;;;4.90;;
77520;SDS011;66633;47.628;19.158;2023-03-05T15:59:33;13.60;;;7.03;;
77520;SDS011;66633;47.628;19.158;2023-03-05T16:01:59;13.80;;;5.57;;
77520;SDS011;66633;47.628;19.158;2023-03-05T16:04:25;9.75;;;4.28;;
77520;SDS011;66633;47.628;19.158;2023-03-05T16:06:52;10.70;;;4.28;;